sensor_id;sensor_type;location;lat;lon;timestamp;temperature;humidity
12578;DHT22;6354;51.026;8.968;2023-01-29T00:01:34;-2.80;99.90
12578;DHT22;6354;51.026;8.968;2023-01-29T00:04:02;-2.70;99.90
12578;DHT22;6354;51.026;8.968;2023-01-29T00:06:30;-2.70;99.90
12578;DHT22;6354;51.026;8.968;2023-01-29T00:08:58;-2.80;99.90
12578;DHT22;6354;51.026;8.968;2023-01-29T00:11:26;-2.80;99.90
12578;DHT22;6354;51.026;8.968;2023-01-29T00:13:54;-2.90;99.90
12578;DHT22;6354;51.026;8.968;2023-01-29T00:16:23;-2.90;99.90
12578;DHT22;6354;51.026;8.968;2023-01-29T00:18:52;-2.90;99.90
12578;DHT22;6354;51.026;8.968;2023-01-29T00:21:21;-3.00;99.90
12578;DHT22;6354;51.026;8.968;2023-01-29T00:23:50;-3.00;99.90
12578;DHT22;6354;51.026;8.968;2023-01-29T00:26:18;-3.00;99.90
12578;DHT22;6354;51.026;8.968;2023-01-29T00:28:46;-3.10;99.90
12578;DHT22;6354;51.026;8.968;2023-01-29T00:31:17;-3.10;99.90
12578;DHT22;6354;51.026;8.968;2023-01-29T00:33:46;-3.10;99.90
12578;DHT22;6354;51.026;8.968;2023-01-29T00:36:17;-3.20;99.90
12578;DHT22;6354;51.026;8.968;2023-01-29T00:38:45;-3.10;99.90
12578;DHT22;6354;51.026;8.968;2023-01-29T00:41:20;-3.10;99.90
12578;DHT22;6354;51.026;8.968;2023-01-29T00:44:06;-3.10;99.90
12578;DHT22;6354;51.026;8.968;2023-01-29T00:46:51;-3.20;99.90
12578;DHT22;6354;51.026;8.968;2023-01-29T00:49:20;-3.20;99.90
12578;DHT22;6354;51.026;8.968;2023-01-29T00:51:50;-3.30;99.90
12578;DHT22;6354;51.026;8.968;2023-01-29T00:54:32;-3.30;99.90
12578;DHT22;6354;51.026;8.968;2023-01-29T00:57:00;-3.30;99.90
12578;DHT22;6354;51.026;8.968;2023-01-29T00:59:28;-3.30;99.90
12578;DHT22;6354;51.026;8.968;2023-01-29T01:01:57;-3.40;99.90
12578;DHT22;6354;51.026;8.968;2023-01-29T01:04:42;-3.40;99.90
12578;DHT22;6354;51.026;8.968;2023-01-29T01:07:11;-3.40;99.90
12578;DHT22;6354;51.026;8.968;2023-01-29T01:09:39;-3.40;99.90
12578;DHT22;6354;51.026;8.968;2023-01-29T01:12:26;-3.40;99.90
12578;DHT22;6354;51.026;8.968;2023-01-29T01:14:54;-3.50;99.90
12578;DHT22;6354;51.026;8.968;2023-01-29T01:17:22;-3.50;99.90
12578;DHT22;6354;51.026;8.968;2023-01-29T01:19:50;-3.40;99.90
12578;DHT22;6354;51.026;8.968;2023-01-29T01:22:19;-3.40;99.90
12578;DHT22;6354;51.026;8.968;2023-01-29T01:24:47;-3.40;99.90
12578;DHT22;6354;51.026;8.968;2023-01-29T01:27:16;-3.40;99.90
12578;DHT22;6354;51.026;8.968;2023-01-29T01:29:45;-3.40;99.90
12578;DHT22;6354;51.026;8.968;2023-01-29T01:32:13;-3.50;99.90
12578;DHT22;6354;51.026;8.968;2023-01-29T01:34:42;-3.60;99.90
12578;DHT22;6354;51.026;8.968;2023-01-29T01:37:10;-3.60;99.90
12578;DHT22;6354;51.026;8.968;2023-01-29T01:39:40;-3.60;99.90
12578;DHT22;6354;51.026;8.968;2023-01-29T01:42:11;-3.60;99.90
12578;DHT22;6354;51.026;8.968;2023-01-29T01:44:54;-3.60;99.90
12578;DHT22;6354;51.026;8.968;2023-01-29T01:47:30;-3.60;99.90
12578;DHT22;6354;51.026;8.968;2023-01-29T01:50:04;-3.60;99.90
12578;DHT22;6354;51.026;8.968;2023-01-29T01:52:35;-3.60;99.90
12578;DHT22;6354;51.026;8.968;2023-01-29T01:55:07;-3.60;99.90
12578;DHT22;6354;51.026;8.968;2023-01-29T01:57:36;-3.60;99.90
12578;DHT22;6354;51.026;8.968;2023-01-29T02:00:06;-3.50;99.90
12578;DHT22;6354;51.026;8.968;2023-01-29T02:02:39;-3.40;99.90
12578;DHT22;6354;51.026;8.968;2023-01-29T02:05:26;-3.30;99.90
12578;DHT22;6354;51.026;8.968;2023-01-29T02:08:13;-3.30;99.90
12578;DHT22;6354;51.026;8.968;2023-01-29T02:11:00;-3.30;99.90
12578;DHT22;6354;51.026;8.968;2023-01-29T02:13:28;-3.20;99.90
12578;DHT22;6354;51.026;8.968;2023-01-29T02:15:56;-3.10;99.90
12578;DHT22;6354;51.026;8.968;2023-01-29T02:18:24;-3.10;99.90
12578;DHT22;6354;51.026;8.968;2023-01-29T02:21:08;-3.00;99.90
12578;DHT22;6354;51.026;8.968;2023-01-29T02:24:08;-3.00;99.90
12578;DHT22;6354;51.026;8.968;2023-01-29T02:26:52;-2.90;99.90
12578;DHT22;6354;51.026;8.968;2023-01-29T02:29:29;-2.90;99.90
12578;DHT22;6354;51.026;8.968;2023-01-29T02:32:12;-3.00;99.90
12578;DHT22;6354;51.026;8.968;2023-01-29T02:34:49;-3.00;99.90
12578;DHT22;6354;51.026;8.968;2023-01-29T02:37:40;-3.10;99.90
12578;DHT22;6354;51.026;8.968;2023-01-29T02:40:18;-3.10;99.90
12578;DHT22;6354;51.026;8.968;2023-01-29T02:42:56;-3.10;99.90
12578;DHT22;6354;51.026;8.968;2023-01-29T02:45:32;-3.20;99.90
12578;DHT22;6354;51.026;8.968;2023-01-29T02:48:01;-3.20;99.90
12578;DHT22;6354;51.026;8.968;2023-01-29T02:50:33;-3.20;99.90
12578;DHT22;6354;51.026;8.968;2023-01-29T02:53:07;-3.30;99.90
12578;DHT22;6354;51.026;8.968;2023-01-29T02:55:41;-3.30;99.90
12578;DHT22;6354;51.026;8.968;2023-01-29T02:58:13;-3.30;99.90
12578;DHT22;6354;51.026;8.968;2023-01-29T03:00:47;-3.30;99.90
12578;DHT22;6354;51.026;8.968;2023-01-29T03:03:17;-3.40;99.90
12578;DHT22;6354;51.026;8.968;2023-01-29T03:05:54;-3.40;99.90
12578;DHT22;6354;51.026;8.968;2023-01-29T03:08:29;-3.40;99.90
12578;DHT22;6354;51.026;8.968;2023-01-29T03:11:10;-3.40;99.90
12578;DHT22;6354;51.026;8.968;2023-01-29T03:13:43;-3.40;99.90
12578;DHT22;6354;51.026;8.968;2023-01-29T03:16:20;-3.40;99.90
12578;DHT22;6354;51.026;8.968;2023-01-29T03:18:54;-3.40;99.90
12578;DHT22;6354;51.026;8.968;2023-01-29T03:21:27;-3.50;99.90
12578;DHT22;6354;51.026;8.968;2023-01-29T03:24:15;-3.50;99.90
12578;DHT22;6354;51.026;8.968;2023-01-29T03:27:07;-3.50;99.90
12578;DHT22;6354;51.026;8.968;2023-01-29T03:29:53;-3.50;99.90
12578;DHT22;6354;51.026;8.968;2023-01-29T03:32:43;-3.50;99.90
12578;DHT22;6354;51.026;8.968;2023-01-29T03:35:16;-3.60;99.90
12578;DHT22;6354;51.026;8.968;2023-01-29T03:37:47;-3.60;99.90
12578;DHT22;6354;51.026;8.968;2023-01-29T03:40:16;-3.60;99.90
12578;DHT22;6354;51.026;8.968;2023-01-29T03:42:56;-3.70;99.90
12578;DHT22;6354;51.026;8.968;2023-01-29T03:45:35;-3.70;99.90
12578;DHT22;6354;51.026;8.968;2023-01-29T03:48:14;-3.80;99.90
12578;DHT22;6354;51.026;8.968;2023-01-29T03:50:49;-3.70;99.90
12578;DHT22;6354;51.026;8.968;2023-01-29T03:53:24;-3.70;99.90
12578;DHT22;6354;51.026;8.968;2023-01-29T03:55:58;-3.70;99.90
12578;DHT22;6354;51.026;8.968;2023-01-29T03:58:34;-3.80;99.90
12578;DHT22;6354;51.026;8.968;2023-01-29T04:01:09;-3.70;99.90
12578;DHT22;6354;51.026;8.968;2023-01-29T04:03:44;-3.70;99.90
12578;DHT22;6354;51.026;8.968;2023-01-29T04:06:17;-3.70;99.90
12578;DHT22;6354;51.026;8.968;2023-01-29T04:08:50;-3.70;99.90
12578;DHT22;6354;51.026;8.968;2023-01-29T04:11:20;-3.70;99.90
12578;DHT22;6354;51.026;8.968;2023-01-29T04:13:50;-3.60;99.90
12578;DHT22;6354;51.026;8.968;2023-01-29T04:16:22;-3.60;99.90
12578;DHT22;6354;51.026;8.968;2023-01-29T04:18:54;-3.60;99.90
12578;DHT22;6354;51.026;8.968;2023-01-29T04:21:24;-3.60;99.90
12578;DHT22;6354;51.026;8.968;2023-01-29T04:23:52;-3.60;99.90
12578;DHT22;6354;51.026;8.968;2023-01-29T04:26:53;-3.70;99.90
12578;DHT22;6354;51.026;8.968;2023-01-29T04:29:35;-3.70;99.90
12578;DHT22;6354;51.026;8.968;2023-01-29T04:32:10;-3.70;99.90
12578;DHT22;6354;51.026;8.968;2023-01-29T04:34:50;-3.70;99.90
12578;DHT22;6354;51.026;8.968;2023-01-29T04:37:29;-3.80;99.90
12578;DHT22;6354;51.026;8.968;2023-01-29T04:40:07;-3.80;99.90
12578;DHT22;6354;51.026;8.968;2023-01-29T04:42:43;-3.80;99.90
12578;DHT22;6354;51.026;8.968;2023-01-29T04:45:19;-3.80;99.90
12578;DHT22;6354;51.026;8.968;2023-01-29T04:47:55;-3.90;99.90
12578;DHT22;6354;51.026;8.968;2023-01-29T04:50:30;-3.90;99.90
12578;DHT22;6354;51.026;8.968;2023-01-29T04:53:05;-3.90;99.90
12578;DHT22;6354;51.026;8.968;2023-01-29T04:55:39;-3.90;99.90
12578;DHT22;6354;51.026;8.968;2023-01-29T04:58:11;-3.90;99.90
12578;DHT22;6354;51.026;8.968;2023-01-29T05:00:43;-3.90;99.90
12578;DHT22;6354;51.026;8.968;2023-01-29T05:03:13;-3.90;99.90
12578;DHT22;6354;51.026;8.968;2023-01-29T05:05:45;-4.00;99.90
12578;DHT22;6354;51.026;8.968;2023-01-29T05:08:17;-4.00;99.90
12578;DHT22;6354;51.026;8.968;2023-01-29T05:10:47;-4.00;99.90
12578;DHT22;6354;51.026;8.968;2023-01-29T05:13:17;-4.00;99.90
12578;DHT22;6354;51.026;8.968;2023-01-29T05:15:48;-4.10;99.90
12578;DHT22;6354;51.026;8.968;2023-01-29T05:18:19;-4.10;99.90
12578;DHT22;6354;51.026;8.968;2023-01-29T05:20:48;-4.10;99.90
12578;DHT22;6354;51.026;8.968;2023-01-29T05:23:17;-4.10;99.90
12578;DHT22;6354;51.026;8.968;2023-01-29T05:25:47;-4.10;99.90
12578;DHT22;6354;51.026;8.968;2023-01-29T05:28:15;-4.00;99.90
12578;DHT22;6354;51.026;8.968;2023-01-29T05:30:43;-4.00;99.90
12578;DHT22;6354;51.026;8.968;2023-01-29T05:33:13;-4.00;99.90
12578;DHT22;6354;51.026;8.968;2023-01-29T05:35:42;-4.00;99.90
12578;DHT22;6354;51.026;8.968;2023-01-29T05:38:11;-4.00;99.90
12578;DHT22;6354;51.026;8.968;2023-01-29T05:40:40;-4.00;99.90
12578;DHT22;6354;51.026;8.968;2023-01-29T05:43:14;-4.00;99.90
12578;DHT22;6354;51.026;8.968;2023-01-29T05:45:42;-4.00;99.90
12578;DHT22;6354;51.026;8.968;2023-01-29T05:48:10;-4.00;99.90
12578;DHT22;6354;51.026;8.968;2023-01-29T05:50:38;-4.00;99.90
12578;DHT22;6354;51.026;8.968;2023-01-29T05:53:07;-4.00;99.90
12578;DHT22;6354;51.026;8.968;2023-01-29T05:55:37;-3.90;99.90
12578;DHT22;6354;51.026;8.968;2023-01-29T05:58:05;-3.90;99.90
12578;DHT22;6354;51.026;8.968;2023-01-29T06:00:33;-3.90;99.90
12578;DHT22;6354;51.026;8.968;2023-01-29T06:03:01;-3.90;99.90
12578;DHT22;6354;51.026;8.968;2023-01-29T06:05:29;-3.90;99.90
12578;DHT22;6354;51.026;8.968;2023-01-29T06:07:57;-3.90;99.90
12578;DHT22;6354;51.026;8.968;2023-01-29T06:10:25;-3.90;99.90
12578;DHT22;6354;51.026;8.968;2023-01-29T06:12:54;-3.90;99.90
12578;DHT22;6354;51.026;8.968;2023-01-29T06:15:22;-3.90;99.90
12578;DHT22;6354;51.026;8.968;2023-01-29T06:17:52;-3.90;99.90
12578;DHT22;6354;51.026;8.968;2023-01-29T06:20:20;-3.90;99.90
12578;DHT22;6354;51.026;8.968;2023-01-29T06:22:48;-3.90;99.90
12578;DHT22;6354;51.026;8.968;2023-01-29T06:25:16;-3.80;99.90
12578;DHT22;6354;51.026;8.968;2023-01-29T06:27:44;-3.90;99.90
12578;DHT22;6354;51.026;8.968;2023-01-29T06:30:14;-3.90;99.90
12578;DHT22;6354;51.026;8.968;2023-01-29T06:32:43;-3.90;99.90
12578;DHT22;6354;51.026;8.968;2023-01-29T06:35:11;-4.00;99.90
12578;DHT22;6354;51.026;8.968;2023-01-29T06:37:39;-3.90;99.90
12578;DHT22;6354;51.026;8.968;2023-01-29T06:40:08;-3.90;99.90
12578;DHT22;6354;51.026;8.968;2023-01-29T06:42:36;-3.90;99.90
12578;DHT22;6354;51.026;8.968;2023-01-29T06:45:05;-3.80;99.90
12578;DHT22;6354;51.026;8.968;2023-01-29T06:47:35;-3.80;99.90
12578;DHT22;6354;51.026;8.968;2023-01-29T06:50:03;-3.70;99.90
12578;DHT22;6354;51.026;8.968;2023-01-29T06:52:31;-3.60;99.90
12578;DHT22;6354;51.026;8.968;2023-01-29T06:54:59;-3.60;99.90
12578;DHT22;6354;51.026;8.968;2023-01-29T06:57:28;-3.60;99.90
12578;DHT22;6354;51.026;8.968;2023-01-29T06:59:56;-3.60;99.90
12578;DHT22;6354;51.026;8.968;2023-01-29T07:02:25;-3.50;99.90
12578;DHT22;6354;51.026;8.968;2023-01-29T07:04:54;-3.40;99.90
12578;DHT22;6354;51.026;8.968;2023-01-29T07:07:22;-3.30;99.90
12578;DHT22;6354;51.026;8.968;2023-01-29T07:09:50;-3.30;99.90
12578;DHT22;6354;51.026;8.968;2023-01-29T07:12:18;-3.20;99.90
12578;DHT22;6354;51.026;8.968;2023-01-29T07:14:46;-3.20;99.90
12578;DHT22;6354;51.026;8.968;2023-01-29T07:17:14;-3.10;99.90
12578;DHT22;6354;51.026;8.968;2023-01-29T07:19:42;-3.00;99.90
12578;DHT22;6354;51.026;8.968;2023-01-29T07:22:11;-3.00;99.90
12578;DHT22;6354;51.026;8.968;2023-01-29T07:24:39;-2.90;99.90
12578;DHT22;6354;51.026;8.968;2023-01-29T07:27:07;-2.90;99.90
12578;DHT22;6354;51.026;8.968;2023-01-29T07:29:35;-2.90;99.90
12578;DHT22;6354;51.026;8.968;2023-01-29T07:32:04;-2.80;99.90
12578;DHT22;6354;51.026;8.968;2023-01-29T07:34:33;-2.80;99.90
12578;DHT22;6354;51.026;8.968;2023-01-29T07:37:01;-2.70;99.90
12578;DHT22;6354;51.026;8.968;2023-01-29T07:39:33;-2.70;99.90
12578;DHT22;6354;51.026;8.968;2023-01-29T07:42:01;-2.70;99.90
12578;DHT22;6354;51.026;8.968;2023-01-29T07:44:29;-2.60;99.90
12578;DHT22;6354;51.026;8.968;2023-01-29T07:46:57;-2.50;99.90
12578;DHT22;6354;51.026;8.968;2023-01-29T07:49:25;-2.40;99.90
12578;DHT22;6354;51.026;8.968;2023-01-29T07:51:53;-2.30;99.90
12578;DHT22;6354;51.026;8.968;2023-01-29T07:54:20;-2.30;99.90
12578;DHT22;6354;51.026;8.968;2023-01-29T07:56:50;-2.30;99.90
12578;DHT22;6354;51.026;8.968;2023-01-29T07:59:18;-2.20;99.90
12578;DHT22;6354;51.026;8.968;2023-01-29T08:01:46;-2.10;99.90
12578;DHT22;6354;51.026;8.968;2023-01-29T08:04:14;-2.10;99.90
12578;DHT22;6354;51.026;8.968;2023-01-29T08:06:42;-2.00;99.90
12578;DHT22;6354;51.026;8.968;2023-01-29T08:09:10;-1.90;99.90
12578;DHT22;6354;51.026;8.968;2023-01-29T08:11:38;-1.90;99.90
12578;DHT22;6354;51.026;8.968;2023-01-29T08:14:07;-1.90;99.90
12578;DHT22;6354;51.026;8.968;2023-01-29T08:16:36;-1.80;99.90
12578;DHT22;6354;51.026;8.968;2023-01-29T08:19:04;-1.80;99.90
12578;DHT22;6354;51.026;8.968;2023-01-29T08:21:32;-1.80;99.90
12578;DHT22;6354;51.026;8.968;2023-01-29T08:24:00;-1.80;99.90
12578;DHT22;6354;51.026;8.968;2023-01-29T08:26:28;-1.70;99.90
12578;DHT22;6354;51.026;8.968;2023-01-29T08:28:56;-1.70;99.90
12578;DHT22;6354;51.026;8.968;2023-01-29T08:31:25;-1.70;99.90
12578;DHT22;6354;51.026;8.968;2023-01-29T08:33:53;-1.60;99.90
12578;DHT22;6354;51.026;8.968;2023-01-29T08:36:21;-1.70;99.90
12578;DHT22;6354;51.026;8.968;2023-01-29T08:38:49;-1.70;99.90
12578;DHT22;6354;51.026;8.968;2023-01-29T08:41:18;-1.50;99.90
12578;DHT22;6354;51.026;8.968;2023-01-29T08:43:46;-1.50;99.90
12578;DHT22;6354;51.026;8.968;2023-01-29T08:46:15;-1.50;99.90
12578;DHT22;6354;51.026;8.968;2023-01-29T08:48:44;-1.60;99.90
12578;DHT22;6354;51.026;8.968;2023-01-29T08:51:12;-1.50;99.90
12578;DHT22;6354;51.026;8.968;2023-01-29T08:53:40;-1.40;99.90
12578;DHT22;6354;51.026;8.968;2023-01-29T08:56:08;-1.40;99.90
12578;DHT22;6354;51.026;8.968;2023-01-29T08:58:36;-1.30;99.90
12578;DHT22;6354;51.026;8.968;2023-01-29T09:01:05;-1.30;99.90
12578;DHT22;6354;51.026;8.968;2023-01-29T09:03:34;-1.30;99.90
12578;DHT22;6354;51.026;8.968;2023-01-29T09:06:04;-1.30;99.90
12578;DHT22;6354;51.026;8.968;2023-01-29T09:08:32;-1.30;99.90
12578;DHT22;6354;51.026;8.968;2023-01-29T09:11:01;-1.30;99.90
12578;DHT22;6354;51.026;8.968;2023-01-29T09:13:29;-1.30;99.90
12578;DHT22;6354;51.026;8.968;2023-01-29T09:15:58;-1.20;99.90
12578;DHT22;6354;51.026;8.968;2023-01-29T09:18:27;-1.20;99.90
12578;DHT22;6354;51.026;8.968;2023-01-29T09:20:55;-1.10;99.90
12578;DHT22;6354;51.026;8.968;2023-01-29T09:23:25;-1.10;99.90
12578;DHT22;6354;51.026;8.968;2023-01-29T09:25:53;-1.10;99.90
12578;DHT22;6354;51.026;8.968;2023-01-29T09:28:21;-1.10;99.90
12578;DHT22;6354;51.026;8.968;2023-01-29T09:30:49;-1.10;99.90
12578;DHT22;6354;51.026;8.968;2023-01-29T09:33:17;-1.10;99.90
12578;DHT22;6354;51.026;8.968;2023-01-29T09:35:45;-1.00;99.90
12578;DHT22;6354;51.026;8.968;2023-01-29T09:38:13;-1.00;99.90
12578;DHT22;6354;51.026;8.968;2023-01-29T09:40:49;-0.90;99.90
12578;DHT22;6354;51.026;8.968;2023-01-29T09:43:21;-0.80;99.90
12578;DHT22;6354;51.026;8.968;2023-01-29T09:45:54;-0.70;99.90
12578;DHT22;6354;51.026;8.968;2023-01-29T09:48:27;-0.60;99.90
12578;DHT22;6354;51.026;8.968;2023-01-29T09:50:58;-0.50;99.90
12578;DHT22;6354;51.026;8.968;2023-01-29T09:53:30;-0.40;99.90
12578;DHT22;6354;51.026;8.968;2023-01-29T09:56:04;-0.40;99.90
12578;DHT22;6354;51.026;8.968;2023-01-29T09:58:34;-0.50;99.90
12578;DHT22;6354;51.026;8.968;2023-01-29T10:01:11;-0.50;99.90
12578;DHT22;6354;51.026;8.968;2023-01-29T10:03:59;-0.50;99.90
12578;DHT22;6354;51.026;8.968;2023-01-29T10:06:40;-0.50;99.90
12578;DHT22;6354;51.026;8.968;2023-01-29T10:09:43;-0.50;99.90
12578;DHT22;6354;51.026;8.968;2023-01-29T10:12:30;-0.60;99.90
12578;DHT22;6354;51.026;8.968;2023-01-29T10:15:12;-0.50;99.90
12578;DHT22;6354;51.026;8.968;2023-01-29T10:17:59;-0.50;99.90
12578;DHT22;6354;51.026;8.968;2023-01-29T10:20:46;-0.60;99.90
12578;DHT22;6354;51.026;8.968;2023-01-29T10:23:22;-0.60;99.90
12578;DHT22;6354;51.026;8.968;2023-01-29T10:25:52;-0.50;99.90
12578;DHT22;6354;51.026;8.968;2023-01-29T10:28:26;-0.40;99.90
12578;DHT22;6354;51.026;8.968;2023-01-29T10:30:58;-0.30;99.90
12578;DHT22;6354;51.026;8.968;2023-01-29T10:33:32;-0.30;99.90
12578;DHT22;6354;51.026;8.968;2023-01-29T10:36:25;-0.20;99.90
12578;DHT22;6354;51.026;8.968;2023-01-29T10:38:54;-0.10;99.90
12578;DHT22;6354;51.026;8.968;2023-01-29T10:41:41;0.00;99.90
12578;DHT22;6354;51.026;8.968;2023-01-29T10:44:23;0.10;99.90
12578;DHT22;6354;51.026;8.968;2023-01-29T10:47:21;0.30;99.90
12578;DHT22;6354;51.026;8.968;2023-01-29T10:50:02;0.30;99.90
12578;DHT22;6354;51.026;8.968;2023-01-29T10:52:44;0.30;99.90
12578;DHT22;6354;51.026;8.968;2023-01-29T10:55:24;0.40;99.90
12578;DHT22;6354;51.026;8.968;2023-01-29T10:58:01;0.40;99.90
12578;DHT22;6354;51.026;8.968;2023-01-29T11:00:35;0.40;99.90
12578;DHT22;6354;51.026;8.968;2023-01-29T11:03:13;0.30;99.90
12578;DHT22;6354;51.026;8.968;2023-01-29T11:05:58;0.30;99.90
12578;DHT22;6354;51.026;8.968;2023-01-29T11:08:31;0.40;99.90
12578;DHT22;6354;51.026;8.968;2023-01-29T11:11:06;0.50;99.90
12578;DHT22;6354;51.026;8.968;2023-01-29T11:13:38;0.50;99.90
12578;DHT22;6354;51.026;8.968;2023-01-29T11:16:09;0.60;99.90
12578;DHT22;6354;51.026;8.968;2023-01-29T11:18:56;0.50;99.90
12578;DHT22;6354;51.026;8.968;2023-01-29T11:21:25;0.40;99.90
12578;DHT22;6354;51.026;8.968;2023-01-29T11:24:05;0.30;99.90
12578;DHT22;6354;51.026;8.968;2023-01-29T11:26:37;0.40;99.90
12578;DHT22;6354;51.026;8.968;2023-01-29T11:29:34;0.50;99.90
12578;DHT22;6354;51.026;8.968;2023-01-29T11:32:07;0.50;99.90
12578;DHT22;6354;51.026;8.968;2023-01-29T11:34:57;0.40;99.90
12578;DHT22;6354;51.026;8.968;2023-01-29T11:37:32;0.50;99.90
12578;DHT22;6354;51.026;8.968;2023-01-29T11:40:01;0.50;99.90
12578;DHT22;6354;51.026;8.968;2023-01-29T11:42:49;0.50;99.90
12578;DHT22;6354;51.026;8.968;2023-01-29T11:45:24;0.60;99.90
12578;DHT22;6354;51.026;8.968;2023-01-29T11:47:55;0.70;99.90
12578;DHT22;6354;51.026;8.968;2023-01-29T11:50:24;0.60;99.90
12578;DHT22;6354;51.026;8.968;2023-01-29T11:52:53;0.70;99.90
12578;DHT22;6354;51.026;8.968;2023-01-29T11:55:23;0.70;99.90
12578;DHT22;6354;51.026;8.968;2023-01-29T11:57:55;0.60;99.90
12578;DHT22;6354;51.026;8.968;2023-01-29T12:00:27;0.70;99.90
12578;DHT22;6354;51.026;8.968;2023-01-29T12:03:02;0.50;99.90
12578;DHT22;6354;51.026;8.968;2023-01-29T12:05:32;0.50;99.90
12578;DHT22;6354;51.026;8.968;2023-01-29T12:08:01;0.50;99.90
12578;DHT22;6354;51.026;8.968;2023-01-29T12:10:32;0.50;99.90
12578;DHT22;6354;51.026;8.968;2023-01-29T12:13:05;0.50;99.90
12578;DHT22;6354;51.026;8.968;2023-01-29T12:15:33;0.50;99.90
12578;DHT22;6354;51.026;8.968;2023-01-29T12:18:07;0.60;99.90
12578;DHT22;6354;51.026;8.968;2023-01-29T12:20:42;0.60;99.90
12578;DHT22;6354;51.026;8.968;2023-01-29T12:23:23;0.60;99.90
12578;DHT22;6354;51.026;8.968;2023-01-29T12:25:59;0.70;99.90
12578;DHT22;6354;51.026;8.968;2023-01-29T12:28:38;0.80;99.90
12578;DHT22;6354;51.026;8.968;2023-01-29T12:31:18;0.90;99.90
12578;DHT22;6354;51.026;8.968;2023-01-29T12:33:54;1.10;99.90
12578;DHT22;6354;51.026;8.968;2023-01-29T12:36:27;1.20;99.90
12578;DHT22;6354;51.026;8.968;2023-01-29T12:38:58;1.20;99.90
12578;DHT22;6354;51.026;8.968;2023-01-29T12:41:35;1.20;99.90
12578;DHT22;6354;51.026;8.968;2023-01-29T12:44:12;1.20;99.90
12578;DHT22;6354;51.026;8.968;2023-01-29T12:46:46;1.30;99.90
12578;DHT22;6354;51.026;8.968;2023-01-29T12:49:21;1.30;99.90
12578;DHT22;6354;51.026;8.968;2023-01-29T12:51:55;1.30;99.90
12578;DHT22;6354;51.026;8.968;2023-01-29T12:54:31;1.40;99.90
12578;DHT22;6354;51.026;8.968;2023-01-29T12:57:06;1.60;99.90
12578;DHT22;6354;51.026;8.968;2023-01-29T12:59:40;1.60;99.90
12578;DHT22;6354;51.026;8.968;2023-01-29T13:02:21;1.60;99.90
12578;DHT22;6354;51.026;8.968;2023-01-29T13:04:56;1.60;99.90
12578;DHT22;6354;51.026;8.968;2023-01-29T13:07:30;1.50;99.90
12578;DHT22;6354;51.026;8.968;2023-01-29T13:10:04;1.70;99.90
12578;DHT22;6354;51.026;8.968;2023-01-29T13:12:35;1.80;99.90
12578;DHT22;6354;51.026;8.968;2023-01-29T13:15:08;1.70;99.90
12578;DHT22;6354;51.026;8.968;2023-01-29T13:17:42;1.80;99.90
12578;DHT22;6354;51.026;8.968;2023-01-29T13:20:18;1.80;99.90
12578;DHT22;6354;51.026;8.968;2023-01-29T13:22:49;1.80;99.90
12578;DHT22;6354;51.026;8.968;2023-01-29T13:25:19;1.80;99.90
12578;DHT22;6354;51.026;8.968;2023-01-29T13:27:50;1.70;99.90
12578;DHT22;6354;51.026;8.968;2023-01-29T13:30:29;1.70;99.90
12578;DHT22;6354;51.026;8.968;2023-01-29T13:32:59;1.60;99.90
12578;DHT22;6354;51.026;8.968;2023-01-29T13:35:39;1.60;99.90
12578;DHT22;6354;51.026;8.968;2023-01-29T13:38:22;1.40;99.90
12578;DHT22;6354;51.026;8.968;2023-01-29T13:40:55;1.40;99.90
12578;DHT22;6354;51.026;8.968;2023-01-29T13:43:26;1.30;99.90
12578;DHT22;6354;51.026;8.968;2023-01-29T13:45:57;1.30;99.90
12578;DHT22;6354;51.026;8.968;2023-01-29T13:48:26;1.50;99.90
12578;DHT22;6354;51.026;8.968;2023-01-29T13:51:01;1.50;99.90
12578;DHT22;6354;51.026;8.968;2023-01-29T13:53:34;1.50;99.90
12578;DHT22;6354;51.026;8.968;2023-01-29T13:56:41;1.70;99.90
12578;DHT22;6354;51.026;8.968;2023-01-29T13:59:21;1.60;99.90
12578;DHT22;6354;51.026;8.968;2023-01-29T14:02:16;1.60;99.90
12578;DHT22;6354;51.026;8.968;2023-01-29T14:04:46;1.50;99.90
12578;DHT22;6354;51.026;8.968;2023-01-29T14:07:49;1.60;99.90
12578;DHT22;6354;51.026;8.968;2023-01-29T14:10:20;1.60;99.90
12578;DHT22;6354;51.026;8.968;2023-01-29T14:12:50;1.60;99.90
12578;DHT22;6354;51.026;8.968;2023-01-29T14:15:30;1.60;99.90
12578;DHT22;6354;51.026;8.968;2023-01-29T14:18:13;1.50;99.90
12578;DHT22;6354;51.026;8.968;2023-01-29T14:21:00;1.50;99.90
12578;DHT22;6354;51.026;8.968;2023-01-29T14:23:39;1.50;99.90
12578;DHT22;6354;51.026;8.968;2023-01-29T14:26:21;1.40;99.90
12578;DHT22;6354;51.026;8.968;2023-01-29T14:28:58;1.40;99.90
12578;DHT22;6354;51.026;8.968;2023-01-29T14:31:35;1.40;99.90
12578;DHT22;6354;51.026;8.968;2023-01-29T14:34:25;1.30;99.90
12578;DHT22;6354;51.026;8.968;2023-01-29T14:36:56;1.30;99.90
12578;DHT22;6354;51.026;8.968;2023-01-29T14:39:32;1.40;99.90
12578;DHT22;6354;51.026;8.968;2023-01-29T14:42:03;1.40;99.90
12578;DHT22;6354;51.026;8.968;2023-01-29T14:45:09;1.30;99.90
12578;DHT22;6354;51.026;8.968;2023-01-29T14:48:01;1.30;99.90
12578;DHT22;6354;51.026;8.968;2023-01-29T14:50:48;1.30;99.90
12578;DHT22;6354;51.026;8.968;2023-01-29T14:53:21;1.20;99.90
12578;DHT22;6354;51.026;8.968;2023-01-29T14:55:56;1.10;99.90
12578;DHT22;6354;51.026;8.968;2023-01-29T14:58:33;1.20;99.90
12578;DHT22;6354;51.026;8.968;2023-01-29T15:01:05;1.10;99.90
12578;DHT22;6354;51.026;8.968;2023-01-29T15:03:42;1.20;99.90
12578;DHT22;6354;51.026;8.968;2023-01-29T15:06:16;1.20;99.90
12578;DHT22;6354;51.026;8.968;2023-01-29T15:08:49;1.20;99.90
12578;DHT22;6354;51.026;8.968;2023-01-29T15:11:29;1.20;99.90
12578;DHT22;6354;51.026;8.968;2023-01-29T15:14:25;1.20;99.90
12578;DHT22;6354;51.026;8.968;2023-01-29T15:17:01;1.10;99.90
12578;DHT22;6354;51.026;8.968;2023-01-29T15:19:34;1.10;99.90
12578;DHT22;6354;51.026;8.968;2023-01-29T15:22:07;1.10;99.90
12578;DHT22;6354;51.026;8.968;2023-01-29T15:24:36;1.00;99.90
12578;DHT22;6354;51.026;8.968;2023-01-29T15:27:13;1.00;99.90
12578;DHT22;6354;51.026;8.968;2023-01-29T15:29:45;1.00;99.90
12578;DHT22;6354;51.026;8.968;2023-01-29T15:32:20;1.00;99.90
12578;DHT22;6354;51.026;8.968;2023-01-29T15:34:55;1.00;99.90
12578;DHT22;6354;51.026;8.968;2023-01-29T15:37:26;1.00;99.90
12578;DHT22;6354;51.026;8.968;2023-01-29T15:39:55;1.10;99.90
12578;DHT22;6354;51.026;8.968;2023-01-29T15:42:27;1.10;99.90
12578;DHT22;6354;51.026;8.968;2023-01-29T15:44:55;1.10;99.90
12578;DHT22;6354;51.026;8.968;2023-01-29T15:47:26;1.00;99.90
12578;DHT22;6354;51.026;8.968;2023-01-29T15:49:56;1.00;99.90
12578;DHT22;6354;51.026;8.968;2023-01-29T15:52:27;1.00;99.90
12578;DHT22;6354;51.026;8.968;2023-01-29T15:54:57;1.10;99.90
12578;DHT22;6354;51.026;8.968;2023-01-29T15:57:34;1.20;99.90
12578;DHT22;6354;51.026;8.968;2023-01-29T16:00:05;1.20;99.90
12578;DHT22;6354;51.026;8.968;2023-01-29T16:02:38;1.20;99.90
12578;DHT22;6354;51.026;8.968;2023-01-29T16:05:11;1.20;99.90
12578;DHT22;6354;51.026;8.968;2023-01-29T16:07:42;1.20;99.90
12578;DHT22;6354;51.026;8.968;2023-01-29T16:10:16;1.30;99.90
12578;DHT22;6354;51.026;8.968;2023-01-29T16:12:47;1.20;99.90
12578;DHT22;6354;51.026;8.968;2023-01-29T16:15:24;1.20;99.90
12578;DHT22;6354;51.026;8.968;2023-01-29T16:17:56;1.20;99.90
12578;DHT22;6354;51.026;8.968;2023-01-29T16:20:43;1.20;99.90
12578;DHT22;6354;51.026;8.968;2023-01-29T16:23:16;1.20;99.90
12578;DHT22;6354;51.026;8.968;2023-01-29T16:25:46;1.20;99.90
12578;DHT22;6354;51.026;8.968;2023-01-29T16:28:17;1.10;99.90
12578;DHT22;6354;51.026;8.968;2023-01-29T16:30:45;1.10;99.90
12578;DHT22;6354;51.026;8.968;2023-01-29T16:33:15;1.00;99.90